sensor_id;sensor_type;location;lat;lon;timestamp;P1;durP1;ratioP1;P2;durP2;ratioP2
6412;SDS011;3239;48.714;9.472;2022-11-20T00:01:15;6.67;;;4.23;;
6412;SDS011;3239;48.714;9.472;2022-11-20T00:03:43;5.27;;;4.30;;
6412;SDS011;3239;48.714;9.472;2022-11-20T00:06:10;5.57;;;4.10;;
6412;SDS011;3239;48.714;9.472;2022-11-20T00:08:40;4.80;;;4.30;;
6412;SDS011;3239;48.714;9.472;2022-11-20T00:11:06;4.70;;;4.20;;
6412;SDS011;3239;48.714;9.472;2022-11-20T00:13:35;5.43;;;4.17;;
6412;SDS011;3239;48.714;9.472;2022-11-20T00:16:02;4.07;;;3.67;;
6412;SDS011;3239;48.714;9.472;2022-11-20T00:18:30;4.30;;;3.63;;
6412;SDS011;3239;48.714;9.472;2022-11-20T00:21:01;5.20;;;3.63;;
6412;SDS011;3239;48.714;9.472;2022-11-20T00:23:32;6.00;;;3.80;;
6412;SDS011;3239;48.714;9.472;2022-11-20T00:26:16;5.10;;;3.80;;
6412;SDS011;3239;48.714;9.472;2022-11-20T00:28:48;3.70;;;3.40;;
6412;SDS011;3239;48.714;9.472;2022-11-20T00:31:16;6.60;;;3.93;;
6412;SDS011;3239;48.714;9.472;2022-11-20T00:33:42;5.40;;;3.63;;
6412;SDS011;3239;48.714;9.472;2022-11-20T00:36:10;6.57;;;3.63;;
6412;SDS011;3239;48.714;9.472;2022-11-20T00:38:40;4.43;;;3.90;;
6412;SDS011;3239;48.714;9.472;2022-11-20T00:41:07;4.87;;;3.83;;
6412;SDS011;3239;48.714;9.472;2022-11-20T00:43:37;4.80;;;3.70;;
6412;SDS011;3239;48.714;9.472;2022-11-20T00:46:04;6.13;;;4.30;;
6412;SDS011;3239;48.714;9.472;2022-11-20T00:48:33;4.40;;;4.00;;
6412;SDS011;3239;48.714;9.472;2022-11-20T00:50:59;8.13;;;4.00;;
6412;SDS011;3239;48.714;9.472;2022-11-20T00:53:25;3.80;;;3.37;;
6412;SDS011;3239;48.714;9.472;2022-11-20T00:55:55;3.90;;;3.50;;
6412;SDS011;3239;48.714;9.472;2022-11-20T00:58:23;5.07;;;4.40;;
6412;SDS011;3239;48.714;9.472;2022-11-20T01:00:50;5.50;;;5.00;;
6412;SDS011;3239;48.714;9.472;2022-11-20T01:03:17;4.47;;;4.07;;
6412;SDS011;3239;48.714;9.472;2022-11-20T01:05:43;5.90;;;5.27;;
6412;SDS011;3239;48.714;9.472;2022-11-20T01:08:09;4.47;;;3.73;;
6412;SDS011;3239;48.714;9.472;2022-11-20T01:10:35;4.73;;;4.20;;
6412;SDS011;3239;48.714;9.472;2022-11-20T01:13:01;4.30;;;3.90;;
6412;SDS011;3239;48.714;9.472;2022-11-20T01:15:45;4.80;;;4.30;;
6412;SDS011;3239;48.714;9.472;2022-11-20T01:18:11;5.10;;;4.60;;
6412;SDS011;3239;48.714;9.472;2022-11-20T01:20:37;5.30;;;4.30;;
6412;SDS011;3239;48.714;9.472;2022-11-20T01:23:03;4.20;;;3.80;;
6412;SDS011;3239;48.714;9.472;2022-11-20T01:25:29;7.20;;;4.10;;
6412;SDS011;3239;48.714;9.472;2022-11-20T01:27:54;7.67;;;4.67;;
6412;SDS011;3239;48.714;9.472;2022-11-20T01:30:20;10.60;;;4.47;;
6412;SDS011;3239;48.714;9.472;2022-11-20T01:32:46;9.93;;;4.40;;
6412;SDS011;3239;48.714;9.472;2022-11-20T01:35:12;4.60;;;4.10;;
6412;SDS011;3239;48.714;9.472;2022-11-20T01:37:38;5.60;;;4.10;;
6412;SDS011;3239;48.714;9.472;2022-11-20T01:40:03;4.27;;;3.87;;
6412;SDS011;3239;48.714;9.472;2022-11-20T01:42:30;5.50;;;4.20;;
6412;SDS011;3239;48.714;9.472;2022-11-20T01:48:18;4.63;;;4.13;;
6412;SDS011;3239;48.714;9.472;2022-11-20T01:50:47;4.57;;;3.73;;
6412;SDS011;3239;48.714;9.472;2022-11-20T01:53:15;4.80;;;3.37;;
6412;SDS011;3239;48.714;9.472;2022-11-20T01:55:45;3.97;;;3.60;;
6412;SDS011;3239;48.714;9.472;2022-11-20T01:58:16;4.73;;;3.93;;
6412;SDS011;3239;48.714;9.472;2022-11-20T02:00:48;4.00;;;3.60;;
6412;SDS011;3239;48.714;9.472;2022-11-20T02:03:15;4.47;;;3.57;;
6412;SDS011;3239;48.714;9.472;2022-11-20T02:08:16;4.40;;;4.00;;
6412;SDS011;3239;48.714;9.472;2022-11-20T02:10:44;3.90;;;3.37;;
6412;SDS011;3239;48.714;9.472;2022-11-20T02:13:09;4.17;;;3.20;;
6412;SDS011;3239;48.714;9.472;2022-11-20T02:15:54;4.73;;;3.83;;
6412;SDS011;3239;48.714;9.472;2022-11-20T02:18:20;3.83;;;3.53;;
6412;SDS011;3239;48.714;9.472;2022-11-20T02:20:48;3.20;;;2.90;;
6412;SDS011;3239;48.714;9.472;2022-11-20T02:23:52;3.93;;;3.47;;
6412;SDS011;3239;48.714;9.472;2022-11-20T02:26:42;4.83;;;3.63;;
6412;SDS011;3239;48.714;9.472;2022-11-20T02:29:23;3.67;;;3.37;;
6412;SDS011;3239;48.714;9.472;2022-11-20T02:32:16;3.70;;;3.40;;
6412;SDS011;3239;48.714;9.472;2022-11-20T02:34:44;4.03;;;3.63;;
6412;SDS011;3239;48.714;9.472;2022-11-20T02:37:10;4.33;;;3.93;;
6412;SDS011;3239;48.714;9.472;2022-11-20T02:39:35;3.63;;;3.33;;
6412;SDS011;3239;48.714;9.472;2022-11-20T02:42:01;4.53;;;4.13;;
6412;SDS011;3239;48.714;9.472;2022-11-20T02:44:27;7.07;;;4.10;;
6412;SDS011;3239;48.714;9.472;2022-11-20T02:46:53;3.77;;;3.47;;
6412;SDS011;3239;48.714;9.472;2022-11-20T02:49:22;5.53;;;3.83;;
6412;SDS011;3239;48.714;9.472;2022-11-20T02:51:47;4.47;;;3.90;;
6412;SDS011;3239;48.714;9.472;2022-11-20T02:54:13;5.00;;;3.80;;
6412;SDS011;3239;48.714;9.472;2022-11-20T02:56:39;4.13;;;3.73;;
6412;SDS011;3239;48.714;9.472;2022-11-20T02:59:05;7.20;;;3.90;;
6412;SDS011;3239;48.714;9.472;2022-11-20T03:01:31;4.77;;;3.73;;
6412;SDS011;3239;48.714;9.472;2022-11-20T03:03:56;4.60;;;3.80;;
6412;SDS011;3239;48.714;9.472;2022-11-20T03:06:22;4.97;;;3.40;;
6412;SDS011;3239;48.714;9.472;2022-11-20T03:08:48;5.63;;;3.90;;
6412;SDS011;3239;48.714;9.472;2022-11-20T03:11:14;4.87;;;4.13;;
6412;SDS011;3239;48.714;9.472;2022-11-20T03:13:39;5.27;;;3.90;;
6412;SDS011;3239;48.714;9.472;2022-11-20T03:16:23;4.30;;;3.90;;
6412;SDS011;3239;48.714;9.472;2022-11-20T03:18:51;5.50;;;4.60;;
6412;SDS011;3239;48.714;9.472;2022-11-20T03:21:17;5.77;;;4.30;;
6412;SDS011;3239;48.714;9.472;2022-11-20T03:23:43;7.23;;;4.03;;
6412;SDS011;3239;48.714;9.472;2022-11-20T03:28:38;4.50;;;3.73;;
6412;SDS011;3239;48.714;9.472;2022-11-20T03:31:08;3.90;;;3.60;;
6412;SDS011;3239;48.714;9.472;2022-11-20T03:33:36;5.03;;;4.20;;
6412;SDS011;3239;48.714;9.472;2022-11-20T03:36:06;4.70;;;4.30;;
6412;SDS011;3239;48.714;9.472;2022-11-20T03:38:35;4.47;;;3.90;;
6412;SDS011;3239;48.714;9.472;2022-11-20T03:41:03;6.50;;;4.70;;
6412;SDS011;3239;48.714;9.472;2022-11-20T03:43:34;6.77;;;4.57;;
6412;SDS011;3239;48.714;9.472;2022-11-20T03:46:00;6.80;;;5.73;;
6412;SDS011;3239;48.714;9.472;2022-11-20T03:48:26;7.80;;;6.33;;
6412;SDS011;3239;48.714;9.472;2022-11-20T03:50:53;5.80;;;4.60;;
6412;SDS011;3239;48.714;9.472;2022-11-20T03:53:32;4.40;;;3.60;;
6412;SDS011;3239;48.714;9.472;2022-11-20T03:55:58;4.03;;;3.73;;
6412;SDS011;3239;48.714;9.472;2022-11-20T03:58:24;4.73;;;4.13;;
6412;SDS011;3239;48.714;9.472;2022-11-20T04:00:50;6.10;;;4.40;;
6412;SDS011;3239;48.714;9.472;2022-11-20T04:03:15;5.40;;;4.33;;
6412;SDS011;3239;48.714;9.472;2022-11-20T04:05:41;5.67;;;4.07;;
6412;SDS011;3239;48.714;9.472;2022-11-20T04:08:07;8.90;;;4.67;;
6412;SDS011;3239;48.714;9.472;2022-11-20T04:10:33;6.27;;;4.70;;
6412;SDS011;3239;48.714;9.472;2022-11-20T04:12:58;11.10;;;5.33;;
6412;SDS011;3239;48.714;9.472;2022-11-20T04:15:24;5.60;;;4.20;;
6412;SDS011;3239;48.714;9.472;2022-11-20T04:17:50;3.83;;;3.43;;
6412;SDS011;3239;48.714;9.472;2022-11-20T04:20:15;3.73;;;3.30;;
6412;SDS011;3239;48.714;9.472;2022-11-20T04:22:41;6.67;;;3.10;;
6412;SDS011;3239;48.714;9.472;2022-11-20T04:25:07;3.30;;;3.00;;
6412;SDS011;3239;48.714;9.472;2022-11-20T04:27:33;4.00;;;3.57;;
6412;SDS011;3239;48.714;9.472;2022-11-20T04:29:59;4.23;;;3.43;;
6412;SDS011;3239;48.714;9.472;2022-11-20T04:32:25;3.23;;;2.83;;
6412;SDS011;3239;48.714;9.472;2022-11-20T04:34:50;3.33;;;2.90;;
6412;SDS011;3239;48.714;9.472;2022-11-20T04:37:16;3.23;;;2.90;;
6412;SDS011;3239;48.714;9.472;2022-11-20T04:39:42;3.90;;;2.63;;
6412;SDS011;3239;48.714;9.472;2022-11-20T04:42:08;4.30;;;2.60;;
6412;SDS011;3239;48.714;9.472;2022-11-20T04:44:53;3.33;;;2.70;;
6412;SDS011;3239;48.714;9.472;2022-11-20T04:47:19;2.43;;;2.23;;
6412;SDS011;3239;48.714;9.472;2022-11-20T04:49:45;3.17;;;2.60;;
6412;SDS011;3239;48.714;9.472;2022-11-20T04:52:11;3.10;;;2.80;;
6412;SDS011;3239;48.714;9.472;2022-11-20T04:54:37;3.13;;;2.80;;
6412;SDS011;3239;48.714;9.472;2022-11-20T04:57:03;2.93;;;2.73;;
6412;SDS011;3239;48.714;9.472;2022-11-20T04:59:28;4.77;;;2.70;;
6412;SDS011;3239;48.714;9.472;2022-11-20T05:01:54;3.17;;;2.97;;
6412;SDS011;3239;48.714;9.472;2022-11-20T05:04:20;3.37;;;3.07;;
6412;SDS011;3239;48.714;9.472;2022-11-20T05:06:46;4.83;;;2.30;;
6412;SDS011;3239;48.714;9.472;2022-11-20T05:09:12;4.10;;;1.90;;
6412;SDS011;3239;48.714;9.472;2022-11-20T05:11:38;2.60;;;2.40;;
6412;SDS011;3239;48.714;9.472;2022-11-20T05:14:03;2.27;;;1.90;;
6412;SDS011;3239;48.714;9.472;2022-11-20T05:16:29;2.37;;;1.70;;
6412;SDS011;3239;48.714;9.472;2022-11-20T05:18:55;1.93;;;1.60;;
6412;SDS011;3239;48.714;9.472;2022-11-20T05:21:22;3.73;;;2.27;;
6412;SDS011;3239;48.714;9.472;2022-11-20T05:23:47;3.23;;;2.27;;
6412;SDS011;3239;48.714;9.472;2022-11-20T05:26:14;3.10;;;1.80;;
6412;SDS011;3239;48.714;9.472;2022-11-20T05:28:46;7.20;;;2.40;;
6412;SDS011;3239;48.714;9.472;2022-11-20T05:31:14;2.20;;;1.63;;
6412;SDS011;3239;48.714;9.472;2022-11-20T05:33:44;2.73;;;1.80;;
6412;SDS011;3239;48.714;9.472;2022-11-20T05:36:10;2.90;;;1.80;;
6412;SDS011;3239;48.714;9.472;2022-11-20T05:38:38;8.60;;;5.60;;
6412;SDS011;3239;48.714;9.472;2022-11-20T05:41:12;7.13;;;4.00;;
6412;SDS011;3239;48.714;9.472;2022-11-20T05:43:44;2.50;;;1.60;;
6412;SDS011;3239;48.714;9.472;2022-11-20T05:46:13;2.13;;;1.87;;
6412;SDS011;3239;48.714;9.472;2022-11-20T05:48:42;5.93;;;2.10;;
6412;SDS011;3239;48.714;9.472;2022-11-20T05:51:09;2.80;;;1.80;;
6412;SDS011;3239;48.714;9.472;2022-11-20T05:53:39;2.40;;;1.70;;
6412;SDS011;3239;48.714;9.472;2022-11-20T05:56:15;2.10;;;1.60;;
6412;SDS011;3239;48.714;9.472;2022-11-20T05:58:44;3.63;;;1.30;;
6412;SDS011;3239;48.714;9.472;2022-11-20T06:03:38;3.13;;;1.60;;
6412;SDS011;3239;48.714;9.472;2022-11-20T06:06:07;3.53;;;1.90;;
6412;SDS011;3239;48.714;9.472;2022-11-20T06:08:33;2.03;;;1.50;;
6412;SDS011;3239;48.714;9.472;2022-11-20T06:11:06;1.93;;;1.63;;
6412;SDS011;3239;48.714;9.472;2022-11-20T06:13:34;2.30;;;1.90;;
6412;SDS011;3239;48.714;9.472;2022-11-20T06:16:00;1.70;;;1.40;;
6412;SDS011;3239;48.714;9.472;2022-11-20T06:18:27;2.10;;;1.37;;
6412;SDS011;3239;48.714;9.472;2022-11-20T06:21:04;2.20;;;1.53;;
6412;SDS011;3239;48.714;9.472;2022-11-20T06:23:36;2.53;;;1.30;;
6412;SDS011;3239;48.714;9.472;2022-11-20T06:26:10;2.97;;;1.90;;
6412;SDS011;3239;48.714;9.472;2022-11-20T06:28:38;1.60;;;1.40;;
6412;SDS011;3239;48.714;9.472;2022-11-20T06:31:05;4.63;;;1.97;;
6412;SDS011;3239;48.714;9.472;2022-11-20T06:33:32;1.80;;;1.50;;
6412;SDS011;3239;48.714;9.472;2022-11-20T06:35:58;2.30;;;1.33;;
6412;SDS011;3239;48.714;9.472;2022-11-20T06:38:26;2.33;;;1.50;;
6412;SDS011;3239;48.714;9.472;2022-11-20T06:40:53;2.30;;;1.37;;
6412;SDS011;3239;48.714;9.472;2022-11-20T06:43:19;1.90;;;1.20;;
6412;SDS011;3239;48.714;9.472;2022-11-20T06:45:45;2.40;;;1.73;;
6412;SDS011;3239;48.714;9.472;2022-11-20T06:48:11;2.20;;;1.50;;
6412;SDS011;3239;48.714;9.472;2022-11-20T06:50:37;2.00;;;1.23;;
6412;SDS011;3239;48.714;9.472;2022-11-20T06:53:03;2.20;;;1.53;;
6412;SDS011;3239;48.714;9.472;2022-11-20T06:55:30;1.97;;;1.50;;
6412;SDS011;3239;48.714;9.472;2022-11-20T06:57:56;3.23;;;1.40;;
6412;SDS011;3239;48.714;9.472;2022-11-20T07:00:22;1.80;;;1.40;;
6412;SDS011;3239;48.714;9.472;2022-11-20T07:02:48;2.20;;;1.40;;
6412;SDS011;3239;48.714;9.472;2022-11-20T07:05:14;2.40;;;1.63;;
6412;SDS011;3239;48.714;9.472;2022-11-20T07:07:41;2.03;;;1.30;;
6412;SDS011;3239;48.714;9.472;2022-11-20T07:10:07;1.90;;;1.20;;
6412;SDS011;3239;48.714;9.472;2022-11-20T07:12:33;2.00;;;1.20;;
6412;SDS011;3239;48.714;9.472;2022-11-20T07:14:59;2.60;;;1.30;;
6412;SDS011;3239;48.714;9.472;2022-11-20T07:17:25;1.43;;;1.23;;
6412;SDS011;3239;48.714;9.472;2022-11-20T07:19:50;2.23;;;1.70;;
6412;SDS011;3239;48.714;9.472;2022-11-20T07:22:16;2.37;;;1.77;;
6412;SDS011;3239;48.714;9.472;2022-11-20T07:24:42;2.20;;;1.70;;
6412;SDS011;3239;48.714;9.472;2022-11-20T07:27:08;4.30;;;2.90;;
6412;SDS011;3239;48.714;9.472;2022-11-20T07:29:33;2.20;;;1.70;;
6412;SDS011;3239;48.714;9.472;2022-11-20T07:31:59;3.50;;;2.27;;
6412;SDS011;3239;48.714;9.472;2022-11-20T07:34:25;2.60;;;1.83;;
6412;SDS011;3239;48.714;9.472;2022-11-20T07:36:51;3.87;;;2.40;;
6412;SDS011;3239;48.714;9.472;2022-11-20T07:39:16;2.70;;;1.93;;
6412;SDS011;3239;48.714;9.472;2022-11-20T07:41:42;2.87;;;2.33;;
6412;SDS011;3239;48.714;9.472;2022-11-20T07:44:08;3.90;;;2.60;;
6412;SDS011;3239;48.714;9.472;2022-11-20T07:46:33;3.53;;;2.03;;
6412;SDS011;3239;48.714;9.472;2022-11-20T07:48:59;2.60;;;1.70;;
6412;SDS011;3239;48.714;9.472;2022-11-20T07:51:25;1.83;;;1.20;;
6412;SDS011;3239;48.714;9.472;2022-11-20T07:53:53;1.40;;;1.30;;
6412;SDS011;3239;48.714;9.472;2022-11-20T07:56:19;2.37;;;1.20;;
6412;SDS011;3239;48.714;9.472;2022-11-20T07:58:45;2.83;;;1.73;;
6412;SDS011;3239;48.714;9.472;2022-11-20T08:01:11;3.97;;;2.10;;
6412;SDS011;3239;48.714;9.472;2022-11-20T08:03:36;5.50;;;2.57;;
6412;SDS011;3239;48.714;9.472;2022-11-20T08:06:02;2.17;;;1.47;;
6412;SDS011;3239;48.714;9.472;2022-11-20T08:08:29;1.53;;;1.30;;
6412;SDS011;3239;48.714;9.472;2022-11-20T08:10:58;3.37;;;1.40;;
6412;SDS011;3239;48.714;9.472;2022-11-20T08:13:44;3.00;;;1.90;;
6412;SDS011;3239;48.714;9.472;2022-11-20T08:16:28;2.50;;;1.27;;
6412;SDS011;3239;48.714;9.472;2022-11-20T08:18:54;2.37;;;1.53;;
6412;SDS011;3239;48.714;9.472;2022-11-20T08:21:20;2.10;;;1.60;;
6412;SDS011;3239;48.714;9.472;2022-11-20T08:23:46;2.00;;;1.60;;
6412;SDS011;3239;48.714;9.472;2022-11-20T08:26:11;8.07;;;2.17;;
6412;SDS011;3239;48.714;9.472;2022-11-20T08:28:37;1.50;;;1.17;;
6412;SDS011;3239;48.714;9.472;2022-11-20T08:31:03;1.43;;;1.30;;
6412;SDS011;3239;48.714;9.472;2022-11-20T08:33:30;3.10;;;1.30;;
6412;SDS011;3239;48.714;9.472;2022-11-20T08:36:03;2.70;;;2.10;;
6412;SDS011;3239;48.714;9.472;2022-11-20T08:38:31;1.97;;;1.30;;
6412;SDS011;3239;48.714;9.472;2022-11-20T08:40:58;2.30;;;1.30;;
6412;SDS011;3239;48.714;9.472;2022-11-20T08:43:44;1.50;;;1.20;;
6412;SDS011;3239;48.714;9.472;2022-11-20T08:46:10;2.97;;;1.40;;
6412;SDS011;3239;48.714;9.472;2022-11-20T08:48:35;3.00;;;1.27;;
6412;SDS011;3239;48.714;9.472;2022-11-20T08:51:01;2.57;;;1.50;;
6412;SDS011;3239;48.714;9.472;2022-11-20T08:53:27;4.60;;;1.60;;
6412;SDS011;3239;48.714;9.472;2022-11-20T08:55:53;3.00;;;2.07;;
6412;SDS011;3239;48.714;9.472;2022-11-20T08:58:18;3.73;;;1.90;;
6412;SDS011;3239;48.714;9.472;2022-11-20T09:00:44;3.97;;;1.90;;
6412;SDS011;3239;48.714;9.472;2022-11-20T09:03:10;2.20;;;1.77;;
6412;SDS011;3239;48.714;9.472;2022-11-20T09:05:38;1.63;;;1.30;;
6412;SDS011;3239;48.714;9.472;2022-11-20T09:08:03;2.33;;;1.83;;
6412;SDS011;3239;48.714;9.472;2022-11-20T09:10:30;2.27;;;1.87;;
6412;SDS011;3239;48.714;9.472;2022-11-20T09:12:56;2.20;;;1.73;;
6412;SDS011;3239;48.714;9.472;2022-11-20T09:15:22;1.80;;;1.43;;
6412;SDS011;3239;48.714;9.472;2022-11-20T09:17:53;3.83;;;1.30;;
6412;SDS011;3239;48.714;9.472;2022-11-20T09:20:24;2.10;;;1.30;;
6412;SDS011;3239;48.714;9.472;2022-11-20T09:22:51;1.67;;;1.10;;
6412;SDS011;3239;48.714;9.472;2022-11-20T09:25:17;1.50;;;1.20;;
6412;SDS011;3239;48.714;9.472;2022-11-20T09:27:43;1.67;;;1.30;;
6412;SDS011;3239;48.714;9.472;2022-11-20T09:30:11;2.13;;;1.53;;
6412;SDS011;3239;48.714;9.472;2022-11-20T09:32:41;2.13;;;1.33;;
6412;SDS011;3239;48.714;9.472;2022-11-20T09:35:07;2.37;;;1.20;;
6412;SDS011;3239;48.714;9.472;2022-11-20T09:37:34;5.83;;;1.87;;
6412;SDS011;3239;48.714;9.472;2022-11-20T09:40:00;3.23;;;1.40;;
6412;SDS011;3239;48.714;9.472;2022-11-20T09:45:24;2.40;;;1.47;;
6412;SDS011;3239;48.714;9.472;2022-11-20T09:50:45;1.30;;;1.17;;
6412;SDS011;3239;48.714;9.472;2022-11-20T09:56:07;1.80;;;1.30;;
6412;SDS011;3239;48.714;9.472;2022-11-20T09:58:40;2.13;;;1.43;;
6412;SDS011;3239;48.714;9.472;2022-11-20T10:01:20;1.90;;;1.30;;
6412;SDS011;3239;48.714;9.472;2022-11-20T10:03:58;1.90;;;1.03;;
6412;SDS011;3239;48.714;9.472;2022-11-20T10:09:49;2.50;;;1.30;;
6412;SDS011;3239;48.714;9.472;2022-11-20T10:12:27;2.53;;;1.57;;
6412;SDS011;3239;48.714;9.472;2022-11-20T10:18:15;1.70;;;1.60;;
6412;SDS011;3239;48.714;9.472;2022-11-20T10:21:04;2.03;;;1.03;;
6412;SDS011;3239;48.714;9.472;2022-11-20T10:29:35;1.53;;;0.80;;
6412;SDS011;3239;48.714;9.472;2022-11-20T10:32:04;2.83;;;1.60;;
6412;SDS011;3239;48.714;9.472;2022-11-20T10:37:13;2.30;;;1.90;;
6412;SDS011;3239;48.714;9.472;2022-11-20T10:42:25;1.80;;;1.00;;
6412;SDS011;3239;48.714;9.472;2022-11-20T10:46:08;1.80;;;1.13;;
6412;SDS011;3239;48.714;9.472;2022-11-20T10:48:30;1.33;;;0.90;;
6412;SDS011;3239;48.714;9.472;2022-11-20T10:50:59;1.80;;;0.93;;
6412;SDS011;3239;48.714;9.472;2022-11-20T10:56:48;1.63;;;1.37;;
6412;SDS011;3239;48.714;9.472;2022-11-20T11:02:21;1.50;;;1.10;;
6412;SDS011;3239;48.714;9.472;2022-11-20T11:04:50;2.33;;;1.30;;
6412;SDS011;3239;48.714;9.472;2022-11-20T11:09:55;1.40;;;0.90;;
6412;SDS011;3239;48.714;9.472;2022-11-20T11:12:22;3.10;;;1.10;;
6412;SDS011;3239;48.714;9.472;2022-11-20T11:14:51;3.90;;;1.00;;
6412;SDS011;3239;48.714;9.472;2022-11-20T11:17:26;1.17;;;0.60;;
6412;SDS011;3239;48.714;9.472;2022-11-20T11:20:06;4.40;;;1.20;;
6412;SDS011;3239;48.714;9.472;2022-11-20T11:22:42;1.13;;;0.70;;
6412;SDS011;3239;48.714;9.472;2022-11-20T11:25:24;4.60;;;0.70;;
6412;SDS011;3239;48.714;9.472;2022-11-20T11:28:01;1.20;;;0.70;;
6412;SDS011;3239;48.714;9.472;2022-11-20T11:30:45;2.63;;;0.83;;
6412;SDS011;3239;48.714;9.472;2022-11-20T11:33:30;1.00;;;0.70;;
6412;SDS011;3239;48.714;9.472;2022-11-20T11:36:00;1.57;;;1.13;;
6412;SDS011;3239;48.714;9.472;2022-11-20T11:38:36;2.70;;;0.97;;
6412;SDS011;3239;48.714;9.472;2022-11-20T11:41:06;2.10;;;1.20;;
6412;SDS011;3239;48.714;9.472;2022-11-20T11:43:38;1.60;;;1.23;;
6412;SDS011;3239;48.714;9.472;2022-11-20T11:46:25;1.47;;;1.27;;
6412;SDS011;3239;48.714;9.472;2022-11-20T11:49:15;1.60;;;1.30;;
6412;SDS011;3239;48.714;9.472;2022-11-20T11:54:39;1.10;;;0.80;;
6412;SDS011;3239;48.714;9.472;2022-11-20T11:57:20;2.67;;;1.00;;
6412;SDS011;3239;48.714;9.472;2022-11-20T12:00:13;1.73;;;1.20;;
6412;SDS011;3239;48.714;9.472;2022-11-20T12:07:58;2.80;;;1.10;;
6412;SDS011;3239;48.714;9.472;2022-11-20T12:14:26;1.90;;;1.20;;
6412;SDS011;3239;48.714;9.472;2022-11-20T12:17:11;2.23;;;1.47;;
6412;SDS011;3239;48.714;9.472;2022-11-20T12:19:43;2.23;;;1.83;;
6412;SDS011;3239;48.714;9.472;2022-11-20T12:25:25;2.47;;;1.40;;
6412;SDS011;3239;48.714;9.472;2022-11-20T12:28:30;3.27;;;1.60;;
6412;SDS011;3239;48.714;9.472;2022-11-20T12:31:36;2.60;;;1.47;;
6412;SDS011;3239;48.714;9.472;2022-11-20T12:41:14;1.87;;;1.07;;
6412;SDS011;3239;48.714;9.472;2022-11-20T12:50:42;2.40;;;1.13;;
6412;SDS011;3239;48.714;9.472;2022-11-20T13:02:25;2.33;;;0.90;;
6412;SDS011;3239;48.714;9.472;2022-11-20T13:08:33;2.40;;;0.80;;
6412;SDS011;3239;48.714;9.472;2022-11-20T13:11:14;3.03;;;1.20;;
6412;SDS011;3239;48.714;9.472;2022-11-20T13:14:09;3.10;;;1.20;;
6412;SDS011;3239;48.714;9.472;2022-11-20T13:19:36;2.60;;;0.93;;
6412;SDS011;3239;48.714;9.472;2022-11-20T13:27:54;2.93;;;0.90;;
6412;SDS011;3239;48.714;9.472;2022-11-20T13:30:23;1.87;;;1.07;;
6412;SDS011;3239;48.714;9.472;2022-11-20T13:40:36;5.20;;;1.53;;
6412;SDS011;3239;48.714;9.472;2022-11-20T13:43:28;3.13;;;1.53;;
6412;SDS011;3239;48.714;9.472;2022-11-20T13:46:06;1.80;;;0.90;;
6412;SDS011;3239;48.714;9.472;2022-11-20T14:00:11;5.40;;;1.80;;
6412;SDS011;3239;48.714;9.472;2022-11-20T14:02:57;6.10;;;2.60;;
6412;SDS011;3239;48.714;9.472;2022-11-20T14:05:31;3.90;;;1.67;;
6412;SDS011;3239;48.714;9.472;2022-11-20T14:08:03;3.17;;;1.77;;
6412;SDS011;3239;48.714;9.472;2022-11-20T14:10:32;2.13;;;1.07;;
6412;SDS011;3239;48.714;9.472;2022-11-20T14:12:58;2.63;;;1.23;;
6412;SDS011;3239;48.714;9.472;2022-11-20T14:15:34;4.30;;;1.27;;
6412;SDS011;3239;48.714;9.472;2022-11-20T14:18:10;2.27;;;0.87;;
6412;SDS011;3239;48.714;9.472;2022-11-20T14:20:39;2.10;;;0.80;;
6412;SDS011;3239;48.714;9.472;2022-11-20T14:23:07;2.63;;;1.10;;
6412;SDS011;3239;48.714;9.472;2022-11-20T14:25:35;3.00;;;1.43;;
6412;SDS011;3239;48.714;9.472;2022-11-20T14:28:02;2.63;;;1.27;;
6412;SDS011;3239;48.714;9.472;2022-11-20T14:30:46;2.40;;;1.10;;
6412;SDS011;3239;48.714;9.472;2022-11-20T14:33:13;2.07;;;1.20;;
6412;SDS011;3239;48.714;9.472;2022-11-20T14:35:50;1.60;;;0.90;;
6412;SDS011;3239;48.714;9.472;2022-11-20T14:38:20;3.80;;;1.40;;
6412;SDS011;3239;48.714;9.472;2022-11-20T14:40:52;2.17;;;0.80;;
6412;SDS011;3239;48.714;9.472;2022-11-20T14:43:20;2.83;;;0.97;;
6412;SDS011;3239;48.714;9.472;2022-11-20T14:45:55;2.40;;;1.10;;
6412;SDS011;3239;48.714;9.472;2022-11-20T14:48:27;1.23;;;0.77;;
6412;SDS011;3239;48.714;9.472;2022-11-20T14:59:26;1.60;;;1.07;;
6412;SDS011;3239;48.714;9.472;2022-11-20T15:01:55;4.67;;;2.83;;
6412;SDS011;3239;48.714;9.472;2022-11-20T15:04:33;5.73;;;1.00;;
6412;SDS011;3239;48.714;9.472;2022-11-20T15:07:09;2.90;;;1.10;;
6412;SDS011;3239;48.714;9.472;2022-11-20T15:09:34;2.97;;;1.30;;
6412;SDS011;3239;48.714;9.472;2022-11-20T15:12:01;2.00;;;1.10;;
6412;SDS011;3239;48.714;9.472;2022-11-20T15:14:29;2.77;;;1.00;;
6412;SDS011;3239;48.714;9.472;2022-11-20T15:16:57;2.90;;;1.40;;
6412;SDS011;3239;48.714;9.472;2022-11-20T15:19:24;5.30;;;2.03;;
6412;SDS011;3239;48.714;9.472;2022-11-20T15:21:51;3.00;;;1.80;;
6412;SDS011;3239;48.714;9.472;2022-11-20T15:24:18;4.80;;;2.20;;
6412;SDS011;3239;48.714;9.472;2022-11-20T15:26:44;3.70;;;1.70;;
6412;SDS011;3239;48.714;9.472;2022-11-20T15:29:12;7.00;;;1.87;;
6412;SDS011;3239;48.714;9.472;2022-11-20T15:31:43;3.27;;;1.73;;
6412;SDS011;3239;48.714;9.472;2022-11-20T15:34:14;3.10;;;1.77;;
6412;SDS011;3239;48.714;9.472;2022-11-20T15:36:40;2.43;;;1.53;;
6412;SDS011;3239;48.714;9.472;2022-11-20T15:39:07;1.97;;;1.00;;
6412;SDS011;3239;48.714;9.472;2022-11-20T15:41:37;1.40;;;1.00;;
6412;SDS011;3239;48.714;9.472;2022-11-20T15:44:03;3.50;;;1.20;;
6412;SDS011;3239;48.714;9.472;2022-11-20T15:46:35;6.07;;;1.20;;
6412;SDS011;3239;48.714;9.472;2022-11-20T15:49:05;2.20;;;1.20;;
6412;SDS011;3239;48.714;9.472;2022-11-20T15:51:37;4.47;;;1.17;;
6412;SDS011;3239;48.714;9.472;2022-11-20T15:54:14;2.07;;;1.10;;
6412;SDS011;3239;48.714;9.472;2022-11-20T15:56:44;2.03;;;1.00;;
6412;SDS011;3239;48.714;9.472;2022-11-20T15:59:17;2.60;;;1.70;;
6412;SDS011;3239;48.714;9.472;2022-11-20T16:01:43;6.50;;;1.93;;
6412;SDS011;3239;48.714;9.472;2022-11-20T16:04:15;6.70;;;5.30;;
6412;SDS011;3239;48.714;9.472;2022-11-20T16:06:41;4.40;;;3.03;;
6412;SDS011;3239;48.714;9.472;2022-11-20T16:09:07;3.80;;;2.37;;
6412;SDS011;3239;48.714;9.472;2022-11-20T16:11:34;3.30;;;2.50;;
6412;SDS011;3239;48.714;9.472;2022-11-20T16:14:04;3.97;;;2.30;;
6412;SDS011;3239;48.714;9.472;2022-11-20T16:16:49;3.43;;;2.37;;
6412;SDS011;3239;48.714;9.472;2022-11-20T16:19:15;4.20;;;3.33;;
6412;SDS011;3239;48.714;9.472;2022-11-20T16:21:42;2.33;;;2.00;;
6412;SDS011;3239;48.714;9.472;2022-11-20T16:24:09;4.07;;;2.17;;
6412;SDS011;3239;48.714;9.472;2022-11-20T16:26:37;3.33;;;1.83;;
6412;SDS011;3239;48.714;9.472;2022-11-20T16:29:04;4.20;;;2.27;;
6412;SDS011;3239;48.714;9.472;2022-11-20T16:31:31;3.13;;;2.40;;
6412;SDS011;3239;48.714;9.472;2022-11-20T16:33:59;3.17;;;1.90;;
6412;SDS011;3239;48.714;9.472;2022-11-20T16:36:28;3.30;;;2.10;;
6412;SDS011;3239;48.714;9.472;2022-11-20T16:38:55;3.10;;;1.50;;
6412;SDS011;3239;48.714;9.472;2022-11-20T16:41:23;3.00;;;1.60;;
6412;SDS011;3239;48.714;9.472;2022-11-20T16:43:52;5.97;;;4.27;;
6412;SDS011;3239;48.714;9.472;2022-11-20T16:46:22;7.70;;;5.30;;
6412;SDS011;3239;48.714;9.472;2022-11-20T16:48:51;5.97;;;3.93;;
6412;SDS011;3239;48.714;9.472;2022-11-20T16:51:22;4.47;;;3.23;;
6412;SDS011;3239;48.714;9.472;2022-11-20T16:53:49;4.07;;;2.70;;
6412;SDS011;3239;48.714;9.472;2022-11-20T16:56:16;3.33;;;2.87;;
6412;SDS011;3239;48.714;9.472;2022-11-20T16:58:44;4.63;;;3.90;;
6412;SDS011;3239;48.714;9.472;2022-11-20T17:01:13;5.57;;;3.80;;
6412;SDS011;3239;48.714;9.472;2022-11-20T17:03:43;3.53;;;3.23;;
6412;SDS011;3239;48.714;9.472;2022-11-20T17:06:14;7.73;;;3.90;;
6412;SDS011;3239;48.714;9.472;2022-11-20T17:08:44;6.03;;;3.50;;
6412;SDS011;3239;48.714;9.472;2022-11-20T17:11:12;7.20;;;3.43;;
6412;SDS011;3239;48.714;9.472;2022-11-20T17:13:40;7.33;;;4.90;;
6412;SDS011;3239;48.714;9.472;2022-11-20T17:16:07;5.50;;;4.60;;
6412;SDS011;3239;48.714;9.472;2022-11-20T17:18:39;6.57;;;4.97;;
6412;SDS011;3239;48.714;9.472;2022-11-20T17:21:05;9.20;;;6.30;;
6412;SDS011;3239;48.714;9.472;2022-11-20T17:26:04;9.13;;;6.60;;
6412;SDS011;3239;48.714;9.472;2022-11-20T17:28:34;12.40;;;7.43;;
6412;SDS011;3239;48.714;9.472;2022-11-20T17:31:02;17.00;;;9.80;;
6412;SDS011;3239;48.714;9.472;2022-11-20T17:33:35;28.20;;;19.40;;
6412;SDS011;3239;48.714;9.472;2022-11-20T17:36:02;23.20;;;16.83;;
6412;SDS011;3239;48.714;9.472;2022-11-20T17:38:29;12.10;;;8.50;;